Time;durP1;ratioP1;P1;durP2;ratioP2;P2;SDS_P1;SDS_P2;PMS_P1;PMS_P2;Temp;Humidity;BMP_temperature;BMP_pressure;BME280_temperature;BME280_humidity;BME280_pressure;Samples;Min_cycle;Max_cycle;Signal;HPM_P1;HPM_P2
2022/05/31 00:02:10;;;;;;;12.73;6.65;;;;;;;22.27;69.88;99698.50;5106740;28;20042;-66
2022/05/31 00:04:36;;;;;;;16.15;7.65;;;;;;;22.26;69.58;99695.00;5106338;28;20028;-66
2022/05/31 00:07:01;;;;;;;13.10;6.63;;;;;;;22.28;69.47;99695.56;5107405;28;20024;-66
2022/05/31 00:09:27;;;;;;;14.18;6.55;;;;;;;22.31;69.21;99694.28;5107040;28;20345;-66
2022/05/31 00:11:54;;;;;;;12.73;6.93;;;;;;;22.27;69.32;99691.25;5105117;28;20035;-66
2022/05/31 00:14:19;;;;;;;10.93;6.53;;;;;;;22.03;70.15;99707.72;5108091;28;20123;-66
2022/05/31 00:16:46;;;;;;;15.52;6.65;;;;;;;21.97;70.25;99699.50;5106098;28;20271;-66
2022/05/31 00:19:14;;;;;;;18.70;6.70;;;;;;;21.91;70.71;99702.31;5109370;28;20039;-66
2022/05/31 00:22:03;;;;;;;17.42;7.05;;;;;;;21.95;70.36;99711.56;5106874;28;20042;-66
2022/05/31 00:24:28;;;;;;;11.70;6.95;;;;;;;21.83;70.67;99714.25;5105276;28;20277;-66
2022/05/31 00:26:54;;;;;;;18.35;7.57;;;;;;;21.66;71.16;99708.75;5085213;28;20016;-66
2022/05/31 00:29:20;;;;;;;11.85;6.70;;;;;;;21.62;71.54;99709.47;5104678;28;20046;-66
2022/05/31 00:31:47;;;;;;;10.40;7.03;;;;;;;21.30;72.51;99714.38;5106521;28;20106;-66
2022/05/31 00:34:14;;;;;;;17.90;6.85;;;;;;;21.31;72.54;99719.53;5107277;28;20328;-66
2022/05/31 00:36:42;;;;;;;14.20;7.43;;;;;;;21.52;71.82;99715.44;5106289;28;20035;-66
2022/05/31 00:39:08;;;;;;;13.15;7.38;;;;;;;21.56;71.04;99724.69;5105637;28;20023;-66
2022/05/31 00:41:34;;;;;;;11.73;6.72;;;;;;;21.52;71.13;99725.41;5104535;28;20244;-66
2022/05/31 00:44:03;;;;;;;12.75;7.20;;;;;;;21.60;70.72;99720.47;5103121;28;20028;-66
2022/05/31 00:46:48;;;;;;;11.18;7.35;;;;;;;21.73;70.34;99729.38;5105165;28;20397;-66
2022/05/31 00:49:24;;;;;;;11.23;6.68;;;;;;;21.71;69.87;99723.41;5106488;28;20342;-66
2022/05/31 00:51:54;;;;;;;18.17;7.25;;;;;;;21.60;70.97;99730.44;5116697;28;20078;-66
2022/05/31 00:54:22;;;;;;;14.93;7.32;;;;;;;21.50;71.45;99730.19;5107284;28;20087;-66
2022/05/31 00:56:51;;;;;;;13.65;6.60;;;;;;;21.53;70.44;99724.34;5108657;28;20333;-66
2022/05/31 00:59:25;;;;;;;12.85;6.50;;;;;;;21.48;70.97;99730.44;5106581;28;20047;-66
2022/05/31 01:01:53;;;;;;;11.52;6.45;;;;;;;21.44;71.64;99723.88;5105708;28;20040;-66
2022/05/31 01:04:30;;;;;;;13.07;6.53;;;;;;;21.48;71.77;99724.22;5104869;28;20031;-66
2022/05/31 01:06:56;;;;;;;13.30;7.32;;;;;;;21.47;72.19;99727.97;5106541;28;20028;-66
2022/05/31 01:09:22;;;;;;;13.13;6.82;;;;;;;21.52;72.37;99725.41;5107626;28;20382;-66
2022/05/31 01:11:47;;;;;;;13.48;7.05;;;;;;;21.48;73.17;99735.81;5104469;28;20381;-66
2022/05/31 01:14:13;;;;;;;12.98;6.60;;;;;;;21.60;72.27;99725.88;5105837;28;20043;-67
2022/05/31 01:16:56;;;;;;;15.43;6.80;;;;;;;21.60;71.37;99730.44;5105170;28;20230;-66
2022/05/31 01:22:05;;;;;;;13.32;6.30;;;;;;;21.47;69.64;99727.97;5105520;28;20030;-66
2022/05/31 01:24:40;;;;;;;17.50;7.75;;;;;;;21.28;71.11;99724.56;5104641;28;20378;-66
2022/05/31 01:27:22;;;;;;;14.23;7.35;;;;;;;21.14;71.98;99732.00;5105132;28;20047;-66
2022/05/31 01:29:48;;;;;;;14.75;7.38;;;;;;;21.14;72.33;99728.47;5105006;28;20042;-66
2022/05/31 01:32:14;;;;;;;10.88;6.80;;;;;;;21.24;71.77;99736.84;5104984;28;20662;-66
2022/05/31 01:34:48;;;;;;;11.80;7.63;;;;;;;21.23;72.39;99740.59;5104009;28;20032;-66
2022/05/31 01:37:14;;;;;;;10.60;6.95;;;;;;;21.25;72.02;99728.53;5109648;28;20051;-66
2022/05/31 01:39:56;;;;;;;12.57;7.65;;;;;;;21.06;72.75;99724.25;5109896;28;20047;-66
2022/05/31 01:42:43;;;;;;;14.57;8.05;;;;;;;20.90;73.62;99727.59;5122107;28;20026;-66
2022/05/31 01:45:26;;;;;;;10.80;7.68;;;;;;;20.86;74.45;99735.31;5111320;28;20070;-66
2022/05/31 01:47:54;;;;;;;16.80;7.57;;;;;;;20.82;73.61;99731.44;5103908;28;20091;-66
2022/05/31 01:50:20;;;;;;;14.20;7.38;;;;;;;20.84;73.96;99747.34;5105280;28;20377;-66
2022/05/31 01:52:49;;;;;;;11.95;7.43;;;;;;;20.88;74.49;99753.94;5104900;28;20178;-67
2022/05/31 01:55:15;;;;;;;12.45;7.78;;;;;;;20.87;74.53;99752.28;5104150;28;20314;-66
2022/05/31 01:57:44;;;;;;;13.40;7.35;;;;;;;20.95;74.19;99752.78;5104568;28;20034;-66
2022/05/31 02:00:12;;;;;;;17.17;7.43;;;;;;;21.06;73.13;99753.88;5104278;28;20288;-66
2022/05/31 02:02:38;;;;;;;11.52;7.43;;;;;;;21.05;72.69;99757.59;5103461;28;20066;-66
2022/05/31 02:05:04;;;;;;;14.00;7.20;;;;;;;20.77;74.03;99758.19;5105420;28;20040;-66
2022/05/31 02:07:30;;;;;;;14.07;7.30;;;;;;;20.72;74.99;99758.88;5104513;28;20039;-66
2022/05/31 02:09:56;;;;;;;11.70;8.15;;;;;;;20.83;73.86;99770.75;5104072;28;20059;-66
2022/05/31 02:12:24;;;;;;;17.30;7.63;;;;;;;20.92;73.99;99773.94;5104658;28;20073;-66
2022/05/31 02:14:50;;;;;;;13.90;7.32;;;;;;;21.06;72.84;99778.09;5104071;28;20056;-66
2022/05/31 02:17:16;;;;;;;15.63;7.70;;;;;;;20.99;73.33;99763.91;5099517;28;20030;-66
2022/05/31 02:19:43;;;;;;;12.27;7.60;;;;;;;21.00;73.84;99769.06;5104317;28;20044;-66
2022/05/31 02:22:13;;;;;;;15.55;7.70;;;;;;;20.96;73.75;99778.66;5103051;28;20051;-66
2022/05/31 02:24:40;;;;;;;12.15;7.40;;;;;;;20.82;74.41;99784.44;5104941;28;20035;-66
2022/05/31 02:27:07;;;;;;;19.10;7.45;;;;;;;20.75;74.54;99792.56;5104191;28;20313;-66
2022/05/31 02:29:35;;;;;;;16.90;7.80;;;;;;;20.75;74.72;99797.94;5103479;28;20032;-66
2022/05/31 02:32:02;;;;;;;25.42;7.78;;;;;;;20.65;74.46;99782.34;5103931;28;20036;-66
2022/05/31 02:34:35;;;;;;;11.02;6.85;;;;;;;20.78;74.22;99788.59;5103593;28;20035;-66
2022/05/31 02:37:01;;;;;;;21.50;7.22;;;;;;;20.89;73.74;99790.56;5102714;28;20039;-66
2022/05/31 02:39:26;;;;;;;21.73;7.75;;;;;;;20.90;73.75;99793.03;5104960;28;20107;-66
2022/05/31 02:41:52;;;;;;;20.63;7.75;;;;;;;21.01;72.50;99794.94;5103870;28;20028;-66
2022/05/31 02:44:19;;;;;;;15.85;7.45;;;;;;;20.87;72.71;99792.66;5106420;28;20046;-66
2022/05/31 02:46:45;;;;;;;15.13;7.45;;;;;;;20.78;73.74;99800.19;5107561;28;20030;-66
2022/05/31 02:49:11;;;;;;;15.20;6.68;;;;;;;20.79;73.87;99798.31;5114015;28;20027;-66
2022/05/31 02:51:39;;;;;;;14.07;7.10;;;;;;;20.70;74.07;99797.81;5104824;28;20027;-66
2022/05/31 02:54:05;;;;;;;15.23;7.65;;;;;;;20.58;74.32;99796.94;5103749;28;20036;-66
2022/05/31 02:56:31;;;;;;;17.20;7.32;;;;;;;20.53;74.76;99799.47;5086390;28;20063;-66
2022/05/31 02:58:57;;;;;;;22.77;7.28;;;;;;;20.80;73.27;99803.47;5105284;28;20124;-66
2022/05/31 03:01:27;;;;;;;10.25;6.47;;;;;;;20.73;73.75;99803.56;5105037;28;20190;-66
2022/05/31 03:03:53;;;;;;;14.05;7.22;;;;;;;20.78;73.14;99808.25;5103888;28;20043;-66
2022/05/31 03:06:20;;;;;;;14.18;6.97;;;;;;;20.84;72.96;99814.63;5103940;28;20254;-66
2022/05/31 03:08:46;;;;;;;13.35;7.50;;;;;;;20.96;72.23;99810.94;5105116;28;20035;-66
2022/05/31 03:11:41;;;;;;;18.80;7.03;;;;;;;20.92;72.23;99817.00;5103675;28;20220;-66
2022/05/31 03:14:09;;;;;;;10.40;6.53;;;;;;;20.81;72.55;99820.47;5083004;28;20098;-66
2022/05/31 03:16:38;;;;;;;18.73;7.43;;;;;;;20.55;73.44;99817.03;5104629;28;20081;-66
2022/05/31 03:19:08;;;;;;;11.30;6.90;;;;;;;20.64;73.24;99807.59;5103484;28;20133;-66
2022/05/31 03:21:40;;;;;;;12.68;7.38;;;;;;;20.53;74.14;99819.13;5101479;28;20356;-66
2022/05/31 03:24:20;;;;;;;15.15;7.10;;;;;;;20.53;74.66;99827.19;5100544;28;20044;-66
2022/05/31 03:26:49;;;;;;;14.88;7.95;;;;;;;20.48;74.49;99818.97;5102546;28;20082;-66
2022/05/31 03:29:15;;;;;;;15.18;7.40;;;;;;;20.65;73.53;99817.31;5101408;28;20040;-66
2022/05/31 03:31:41;;;;;;;16.15;6.95;;;;;;;20.79;72.32;99823.34;5100453;28;20263;-66
2022/05/31 03:34:06;;;;;;;12.00;7.20;;;;;;;20.73;72.19;99822.41;5102748;28;20040;-66
2022/05/31 03:36:33;;;;;;;31.38;8.07;;;;;;;20.85;71.43;99830.56;5104833;28;20039;-66
2022/05/31 03:38:59;;;;;;;15.55;7.53;;;;;;;20.90;70.97;99829.88;5104448;28;20095;-66
2022/05/31 03:41:25;;;;;;;14.90;7.05;;;;;;;20.99;71.09;99825.81;5102920;28;20035;-66
2022/05/31 03:43:50;;;;;;;12.80;6.85;;;;;;;21.08;70.92;99832.53;5108197;28;20049;-66
2022/05/31 03:46:17;;;;;;;8.52;6.35;;;;;;;21.20;70.22;99833.41;5108957;28;20460;-66
2022/05/31 03:48:42;;;;;;;17.80;7.28;;;;;;;21.23;70.10;99843.75;5107747;28;20043;-66
2022/05/31 03:51:10;;;;;;;16.50;6.88;;;;;;;21.31;69.94;99834.50;5109012;28;20199;-66
2022/05/31 03:53:37;;;;;;;15.65;7.00;;;;;;;21.48;69.71;99837.38;5106974;28;20028;-66
2022/05/31 03:56:10;;;;;;;12.90;6.78;;;;;;;21.65;69.38;99843.72;5106198;28;20028;-66
2022/05/31 03:58:36;;;;;;;17.23;8.07;;;;;;;21.79;69.21;99838.94;5107225;28;20031;-66
2022/05/31 04:01:02;;;;;;;21.38;8.52;;;;;;;21.92;69.51;99844.97;5106844;28;20313;-66
2022/05/31 04:03:28;;;;;;;19.20;9.55;;;;;;;21.98;69.36;99848.59;5109294;28;20050;-66
2022/05/31 04:05:54;;;;;;;14.07;8.68;;;;;;;21.99;69.54;99845.66;5107180;28;20027;-66
2022/05/31 04:08:20;;;;;;;18.85;9.65;;;;;;;22.09;69.51;99857.78;5106300;28;20035;-65
2022/05/31 04:10:47;;;;;;;16.70;10.75;;;;;;;22.00;69.50;99854.59;5107204;28;20055;-66
2022/05/31 04:13:14;;;;;;;24.50;11.13;;;;;;;22.00;70.05;99862.66;5103863;28;20032;-66
2022/05/31 04:15:40;;;;;;;17.73;10.65;;;;;;;22.12;69.66;99857.31;5106529;28;20023;-66
2022/05/31 04:18:06;;;;;;;18.55;10.20;;;;;;;22.13;69.51;99865.16;5105669;28;20158;-66
2022/05/31 04:20:33;;;;;;;22.60;10.13;;;;;;;22.27;68.74;99866.56;5105887;28;20051;-66
2022/05/31 04:25:43;;;;;;;26.30;9.75;;;;;;;22.41;68.80;99860.94;5106607;28;20066;-66
2022/05/31 04:28:09;;;;;;;21.08;10.80;;;;;;;22.41;68.46;99867.16;5105649;28;20032;-66
2022/05/31 04:30:36;;;;;;;25.23;9.43;;;;;;;22.69;67.38;99869.09;5109505;28;20024;-66
2022/05/31 04:33:01;;;;;;;21.45;8.85;;;;;;;22.83;67.07;99875.09;5106053;28;20316;-66
2022/05/31 04:35:27;;;;;;;17.52;10.25;;;;;;;22.88;66.66;99867.09;5101256;28;20039;-66
2022/05/31 04:37:52;;;;;;;19.50;9.07;;;;;;;22.80;66.33;99880.97;5123607;28;20088;-66
2022/05/31 04:40:18;;;;;;;15.20;9.80;;;;;;;22.82;66.17;99868.03;5107972;28;20065;-66
2022/05/31 04:42:43;;;;;;;20.15;9.35;;;;;;;23.03;65.97;99880.09;5109838;28;20035;-67
2022/05/31 04:45:09;;;;;;;26.67;11.90;;;;;;;23.28;64.27;99877.88;5116469;28;20085;-66
2022/05/31 04:47:35;;;;;;;19.67;11.93;;;;;;;23.24;64.25;99871.31;5107972;28;20245;-66
2022/05/31 04:50:01;;;;;;;24.23;12.98;;;;;;;23.38;63.63;99879.97;5112541;28;20043;-66
2022/05/31 04:52:26;;;;;;;24.63;13.35;;;;;;;23.58;63.02;99880.34;5111684;28;20038;-66
2022/05/31 04:54:52;;;;;;;25.10;11.95;;;;;;;23.83;62.15;99874.56;5107985;28;20020;-66
2022/05/31 04:57:18;;;;;;;25.52;11.48;;;;;;;24.24;60.96;99861.69;5111093;28;20040;-67
2022/05/31 04:59:45;;;;;;;20.58;10.68;;;;;;;24.42;60.38;99869.56;5115818;28;20039;-67
2022/05/31 05:02:10;;;;;;;18.02;9.77;;;;;;;24.87;58.76;99869.31;5118254;28;20110;-67
2022/05/31 05:04:36;;;;;;;21.77;9.40;;;;;;;25.21;57.57;99871.94;5118459;28;20039;-65
2022/05/31 05:07:02;;;;;;;18.20;10.48;;;;;;;25.36;56.80;99855.84;5123288;28;20031;-66
2022/05/31 05:09:27;;;;;;;18.92;9.23;;;;;;;25.66;55.19;99872.41;5117936;28;20044;-66
2022/05/31 05:11:52;;;;;;;15.60;9.00;;;;;;;25.80;54.34;99867.38;5122955;28;20043;-66
2022/05/31 05:14:18;;;;;;;18.67;8.07;;;;;;;25.69;54.69;99869.19;5118227;28;20035;-67
2022/05/31 05:16:43;;;;;;;14.57;8.25;;;;;;;25.81;54.35;99863.59;5122012;28;20031;-67
2022/05/31 05:19:09;;;;;;;14.48;8.70;;;;;;;26.07;53.35;99851.88;5117653;28;20324;-67
2022/05/31 05:21:34;;;;;;;16.83;7.75;;;;;;;26.31;52.54;99867.78;5104659;28;20232;-67
2022/05/31 05:24:00;;;;;;;17.70;7.88;;;;;;;26.64;51.72;99864.72;5122712;28;20034;-67
2022/05/31 05:26:25;;;;;;;12.02;7.15;;;;;;;26.81;50.42;99867.25;5122893;28;20028;-67
2022/05/31 05:31:35;;;;;;;;;;;;;;;27.07;49.41;99864.66;5110952;28;20027;-67
2022/05/31 05:34:02;;;;;;;18.20;9.38;;;;;;;27.27;49.16;99875.59;5122609;28;19919;-66
2022/05/31 05:36:29;;;;;;;16.08;7.78;;;;;;;27.43;48.48;99871.81;5122595;28;20027;-67
2022/05/31 05:38:55;;;;;;;20.17;8.40;;;;;;;27.46;47.85;99868.56;5121713;28;20020;-67
2022/05/31 05:41:22;;;;;;;27.00;9.63;;;;;;;27.78;47.97;99871.06;5122431;28;20035;-67
2022/05/31 05:43:48;;;;;;;16.30;7.93;;;;;;;27.86;47.95;99856.91;5122575;28;20392;-67
2022/05/31 05:46:22;;;;;;;17.80;6.95;;;;;;;28.08;46.71;99872.13;5122324;28;20043;-67
2022/05/31 05:48:48;;;;;;;15.10;7.10;;;;;;;28.20;45.58;99868.06;5110569;28;20380;-67
2022/05/31 05:51:28;;;;;;;16.90;6.40;;;;;;;28.17;45.05;99870.50;5111191;28;20028;-67
2022/05/31 05:53:54;;;;;;;16.67;6.18;;;;;;;28.39;44.85;99872.94;5110242;28;20080;-67
2022/05/31 05:56:21;;;;;;;12.77;5.38;;;;;;;28.57;44.09;99875.91;5112414;28;20202;-67
2022/05/31 05:58:47;;;;;;;11.20;5.13;;;;;;;28.42;43.71;99870.50;5108761;28;20121;-67
2022/05/31 06:01:45;;;;;;;16.00;5.47;;;;;;;28.43;43.99;99871.31;5109803;28;20028;-67
2022/05/31 06:04:26;;;;;;;13.02;5.90;;;;;;;28.50;43.65;99880.81;5089815;28;20236;-67
2022/05/31 06:07:06;;;;;;;18.58;6.13;;;;;;;28.35;43.57;99875.41;5109978;28;20035;-67
2022/05/31 06:09:34;;;;;;;16.33;5.68;;;;;;;28.37;43.49;99873.22;5106510;28;20069;-67
2022/05/31 06:12:15;;;;;;;13.93;5.53;;;;;;;28.80;43.05;99869.00;5104562;28;20047;-67
2022/05/31 06:14:46;;;;;;;13.68;5.55;;;;;;;28.86;42.29;99872.53;5106439;28;20027;-67
2022/05/31 06:17:21;;;;;;;13.73;5.32;;;;;;;28.48;42.72;99866.66;5112168;28;20050;-67
2022/05/31 06:19:49;;;;;;;12.65;4.97;;;;;;;28.68;42.86;99859.50;5110341;28;20213;-67
2022/05/31 06:22:15;;;;;;;7.57;4.72;;;;;;;29.20;42.20;99859.03;5109226;28;20032;-67
2022/05/31 06:24:41;;;;;;;11.85;5.38;;;;;;;29.35;41.88;99855.41;5110782;28;20031;-66
2022/05/31 06:27:07;;;;;;;10.68;5.63;;;;;;;29.40;42.20;99864.38;5107314;28;20107;-67
2022/05/31 06:29:33;;;;;;;12.13;5.50;;;;;;;29.73;41.59;99851.88;5109040;28;20330;-67
2022/05/31 06:31:58;;;;;;;15.82;6.05;;;;;;;30.03;40.88;99859.00;5111672;28;20283;-67
2022/05/31 06:34:24;;;;;;;10.57;5.18;;;;;;;30.23;40.31;99855.28;5110442;28;20031;-67
2022/05/31 06:37:11;;;;;;;10.65;4.93;;;;;;;30.49;39.38;99856.63;5110196;28;20031;-67
2022/05/31 06:39:39;;;;;;;11.75;5.13;;;;;;;30.45;39.03;99857.50;5108009;28;20055;-68
2022/05/31 06:42:05;;;;;;;12.70;5.13;;;;;;;30.48;39.44;99852.28;5109913;28;20039;-67
2022/05/31 06:44:35;;;;;;;13.68;5.47;;;;;;;30.60;39.01;99848.34;5096016;28;20035;-67
2022/05/31 06:47:01;;;;;;;11.68;5.25;;;;;;;30.63;38.45;99851.31;5106130;28;20031;-67
2022/05/31 06:49:28;;;;;;;10.15;5.03;;;;;;;30.54;39.25;99844.00;5109692;28;20047;-67
2022/05/31 06:57:22;;;;;;;9.43;5.27;;;;;;;31.40;37.89;99848.41;5107134;28;19927;-67
2022/05/31 06:59:47;;;;;;;10.50;5.07;;;;;;;31.29;37.78;99845.00;5112674;28;20031;-67
2022/05/31 07:02:13;;;;;;;9.18;5.50;;;;;;;31.67;37.00;99837.56;5114330;28;20050;-67
2022/05/31 07:04:38;;;;;;;51.90;8.27;;;;;;;31.59;37.72;99835.50;5105433;28;20406;-66
2022/05/31 07:07:05;;;;;;;9.32;5.40;;;;;;;31.98;36.98;99839.78;5104577;28;20027;-67
2022/05/31 07:09:30;;;;;;;14.35;5.40;;;;;;;32.04;36.43;99830.38;5109516;28;20071;-67
2022/05/31 07:11:57;;;;;;;10.13;5.18;;;;;;;32.33;36.23;99828.22;5108093;28;20032;-67
2022/05/31 07:14:25;;;;;;;9.40;5.00;;;;;;;32.12;36.11;99823.38;5107315;28;20104;-67
2022/05/31 07:16:51;;;;;;;10.85;5.03;;;;;;;31.85;36.02;99835.91;5106391;28;20077;-67
2022/05/31 07:19:17;;;;;;;9.38;5.47;;;;;;;32.20;36.29;99834.44;5113640;28;20098;-67
2022/05/31 07:21:43;;;;;;;9.48;5.63;;;;;;;31.99;36.22;99827.72;5112999;28;20333;-67
2022/05/31 07:24:09;;;;;;;10.45;5.00;;;;;;;31.79;36.58;99837.13;5111759;28;20310;-67
2022/05/31 07:26:35;;;;;;;13.65;5.43;;;;;;;31.52;37.30;99837.81;5117140;28;20027;-67
2022/05/31 07:29:00;;;;;;;9.02;4.97;;;;;;;31.60;37.19;99839.03;5113028;28;20218;-66
2022/05/31 07:31:26;;;;;;;11.48;6.03;;;;;;;31.78;36.62;99837.41;5111341;28;20043;-67
2022/05/31 07:33:52;;;;;;;9.93;5.38;;;;;;;32.06;35.86;99828.94;5112254;28;20024;-67
2022/05/31 07:36:19;;;;;;;10.15;5.13;;;;;;;32.30;35.83;99826.09;5115809;28;20023;-67
2022/05/31 07:38:45;;;;;;;11.82;4.97;;;;;;;32.64;35.00;99830.34;5114400;28;20126;-67
2022/05/31 07:41:10;;;;;;;13.45;5.50;;;;;;;32.89;34.84;99820.78;5113558;28;20307;-67
2022/05/31 07:43:36;;;;;;;9.35;5.43;;;;;;;32.59;34.94;99820.31;5114980;28;20035;-67
2022/05/31 07:46:10;;;;;;;13.75;5.93;;;;;;;32.24;35.32;99824.53;5111211;28;20039;-67
2022/05/31 07:48:37;;;;;;;8.77;5.45;;;;;;;31.98;36.49;99828.84;5112339;28;20081;-67
2022/05/31 07:51:04;;;;;;;10.80;5.53;;;;;;;32.64;35.12;99822.13;5109748;28;20317;-67
2022/05/31 07:53:30;;;;;;;7.53;5.40;;;;;;;33.15;34.20;99821.84;5115800;28;20077;-67
2022/05/31 07:55:57;;;;;;;14.45;5.43;;;;;;;32.78;34.91;99820.19;5110470;28;20370;-67
2022/05/31 07:58:32;;;;;;;12.80;5.70;;;;;;;32.78;34.18;99820.19;5114636;28;20023;-67
2022/05/31 08:01:04;;;;;;;9.73;5.53;;;;;;;33.34;34.04;99812.69;5109603;28;20091;-67
2022/05/31 08:03:30;;;;;;;15.50;5.70;;;;;;;33.22;34.19;99814.00;5112619;28;20066;-67
2022/05/31 08:05:56;;;;;;;11.57;5.43;;;;;;;33.34;34.11;99809.94;5117197;28;20031;-67
2022/05/31 08:08:21;;;;;;;11.38;5.50;;;;;;;33.76;32.76;99809.41;5110916;28;20101;-67
2022/05/31 08:10:47;;;;;;;9.32;5.20;;;;;;;33.61;33.51;99799.66;5111331;28;20065;-67
2022/05/31 08:13:12;;;;;;;11.70;5.38;;;;;;;33.74;32.97;99802.63;5112728;28;20377;-67
2022/05/31 08:15:38;;;;;;;13.38;6.07;;;;;;;33.58;33.19;99794.78;5110917;28;20024;-67
2022/05/31 08:18:04;;;;;;;12.10;5.78;;;;;;;33.42;32.87;99801.78;5108580;28;20062;-67
2022/05/31 08:20:29;;;;;;;11.80;4.82;;;;;;;33.61;33.87;99796.91;5113048;28;20046;-67
2022/05/31 08:22:55;;;;;;;11.40;5.72;;;;;;;33.56;32.66;99791.53;5115427;28;20032;-67
2022/05/31 08:25:21;;;;;;;12.95;5.50;;;;;;;33.83;33.35;99787.03;5109592;28;20038;-67
2022/05/31 08:27:47;;;;;;;10.57;5.80;;;;;;;33.95;31.98;99790.00;5113711;28;20102;-67
2022/05/31 08:30:12;;;;;;;9.82;5.38;;;;;;;33.68;32.17;99795.63;5107402;28;20493;-67
2022/05/31 08:32:38;;;;;;;11.23;5.50;;;;;;;33.70;32.61;99791.47;5109957;28;20020;-67
2022/05/31 08:35:06;;;;;;;11.15;5.55;;;;;;;33.50;32.39;99787.28;5112780;28;20338;-67
2022/05/31 08:37:31;;;;;;;14.55;5.65;;;;;;;33.70;32.78;99783.22;5109534;28;20039;-67
2022/05/31 08:39:57;;;;;;;11.50;6.40;;;;;;;33.86;33.32;99778.16;5109724;28;20035;-67
2022/05/31 08:42:48;;;;;;;14.23;5.53;;;;;;;34.12;33.26;99770.84;5109534;28;20031;-67
2022/05/31 08:45:25;;;;;;;10.30;5.18;;;;;;;34.37;32.89;99776.81;5115688;28;20043;-67
2022/05/31 08:48:02;;;;;;;13.90;5.43;;;;;;;34.12;32.22;99775.53;5108505;28;20329;-67
2022/05/31 08:53:43;;;;;;;13.95;5.78;;;;;;;33.49;33.92;99771.94;5107993;28;20026;-67
2022/05/31 08:59:11;;;;;;;12.48;6.13;;;;;;;32.89;34.03;99768.69;5111733;28;20125;-67
2022/05/31 09:01:52;;;;;;;15.07;6.20;;;;;;;32.87;34.56;99765.44;5107390;28;20051;-67
2022/05/31 09:04:23;;;;;;;10.15;5.47;;;;;;;33.21;34.15;99768.47;5110749;28;20035;-67
2022/05/31 09:06:51;;;;;;;9.20;5.57;;;;;;;33.54;33.63;99766.34;5110099;28;20096;-67
2022/05/31 09:09:23;;;;;;;12.18;5.60;;;;;;;33.64;33.20;99766.06;5109071;28;20032;-67
2022/05/31 09:12:01;;;;;;;11.93;5.45;;;;;;;33.70;33.20;99772.22;5110509;28;20035;-67
2022/05/31 09:14:46;;;;;;;15.98;6.10;;;;;;;33.64;33.17;99765.25;5105503;28;20039;-67
2022/05/31 09:17:35;;;;;;;14.05;6.13;;;;;;;32.45;35.10;99767.41;5110754;28;20030;-67
2022/05/31 09:20:12;;;;;;;14.73;6.55;;;;;;;32.44;35.53;99765.81;5092644;28;20303;-66
2022/05/31 09:22:43;;;;;;;9.93;5.70;;;;;;;32.47;34.95;99756.97;5108112;28;20028;-67
2022/05/31 09:25:09;;;;;;;13.93;5.97;;;;;;;32.64;35.29;99759.06;5106813;28;20027;-67
2022/05/31 09:27:46;;;;;;;12.23;5.57;;;;;;;32.63;37.07;99763.75;5110826;28;20046;-66
2022/05/31 09:30:20;;;;;;;11.63;5.55;;;;;;;32.43;35.88;99757.88;5111425;28;20102;-67
2022/05/31 09:33:04;;;;;;;13.93;5.57;;;;;;;32.61;35.58;99751.47;5112988;28;20333;-67
2022/05/31 09:35:46;;;;;;;13.07;5.70;;;;;;;32.20;36.75;99757.75;5108794;28;20218;-67
2022/05/31 09:38:36;;;;;;;13.43;5.40;;;;;;;32.23;36.51;99748.91;5111009;28;20120;-67
2022/05/31 09:41:18;;;;;;;15.55;5.47;;;;;;;32.24;35.75;99749.75;5108480;28;20034;-67
2022/05/31 09:44:02;;;;;;;14.68;5.28;;;;;;;32.30;36.96;99752.09;5108693;28;20023;-67
2022/05/31 09:46:54;;;;;;;11.13;5.25;;;;;;;32.07;36.25;99740.19;5107798;28;20036;-67
2022/05/31 09:49:39;;;;;;;9.27;4.55;;;;;;;32.25;36.50;99744.00;5111653;28;20100;-67
2022/05/31 09:52:30;;;;;;;13.13;4.93;;;;;;;32.39;35.47;99738.50;5110706;28;20321;-67
2022/05/31 09:58:08;;;;;;;16.95;5.15;;;;;;;32.04;35.35;99745.47;5111788;28;20031;-67
2022/05/31 10:00:55;;;;;;;12.00;4.90;;;;;;;31.97;34.70;99743.13;5109984;28;20032;-67
2022/05/31 10:03:21;;;;;;;10.65;5.00;;;;;;;31.49;35.22;99739.06;5107704;28;20031;-67
2022/05/31 10:05:48;;;;;;;11.35;5.55;;;;;;;31.39;35.88;99740.06;5110525;28;20048;-67
2022/05/31 10:08:32;;;;;;;8.38;4.85;;;;;;;31.29;35.94;99734.75;5105002;28;20031;-67
2022/05/31 10:11:04;;;;;;;13.88;4.50;;;;;;;31.20;36.96;99731.84;5111879;28;20145;-67
2022/05/31 10:13:38;;;;;;;11.10;4.57;;;;;;;31.35;35.95;99728.09;5105521;28;20394;-67
2022/05/31 10:16:32;;;;;;;8.32;4.38;;;;;;;31.34;35.71;99721.81;5110087;28;20046;-67
2022/05/31 10:19:00;;;;;;;9.07;4.32;;;;;;;31.47;34.69;99719.41;5104919;28;20077;-67
2022/05/31 10:21:40;;;;;;;10.85;4.90;;;;;;;31.29;35.22;99716.41;5111793;28;20031;-67
2022/05/31 10:24:19;;;;;;;9.82;4.07;;;;;;;31.52;34.61;99714.66;5108813;28;20106;-67
2022/05/31 10:27:05;;;;;;;13.48;4.65;;;;;;;31.31;37.76;99718.84;5111077;28;20065;-67
2022/05/31 10:29:44;;;;;;;9.27;4.35;;;;;;;31.27;36.47;99715.09;5110387;28;20326;-67
2022/05/31 10:32:43;;;;;;;9.45;4.72;;;;;;;30.88;36.21;99723.59;5107110;28;20031;-67
2022/05/31 10:35:14;;;;;;;12.95;4.90;;;;;;;31.02;36.09;99711.59;5082627;28;20036;-66
2022/05/31 10:38:24;;;;;;;8.15;3.88;;;;;;;31.38;33.99;99711.06;5111326;28;20062;-67
2022/05/31 10:40:56;;;;;;;47.08;40.90;;;;;;;31.46;35.22;99704.91;5105535;28;20057;-67
2022/05/31 10:43:40;;;;;;;10.60;5.85;;;;;;;31.67;35.84;99716.28;5110090;28;20031;-67
2022/05/31 10:46:25;;;;;;;;;;;;;;;31.80;34.56;99710.06;5116119;28;20106;-67
2022/05/31 10:48:55;;;;;;;9.70;4.57;;;;;;;31.97;34.05;99713.00;5099637;28;19923;-68
2022/05/31 10:51:43;;;;;;;7.90;4.05;;;;;;;31.56;35.09;99691.03;5108624;28;20027;-67
2022/05/31 10:54:15;;;;;;;11.88;4.20;;;;;;;31.73;34.43;99709.66;5114177;28;20055;-67
2022/05/31 10:56:53;;;;;;;13.35;4.68;;;;;;;31.66;34.30;99703.72;5111333;28;20035;-67
2022/05/31 10:59:29;;;;;;;9.18;4.88;;;;;;;31.80;34.70;99701.84;5116334;28;20324;-67
2022/05/31 11:02:25;;;;;;;12.23;4.30;;;;;;;31.63;34.52;99713.34;5109357;28;20029;-67
2022/05/31 11:05:00;;;;;;;11.45;4.05;;;;;;;31.14;33.37;99694.72;5111674;28;20046;-67
2022/05/31 11:11:28;;;;;;;10.32;4.60;;;;;;;30.85;35.58;99702.31;5111825;28;20338;-67
2022/05/31 11:13:53;;;;;;;7.80;3.67;;;;;;;31.06;35.93;99681.75;5115725;28;20035;-67
2022/05/31 11:16:53;;;;;;;38.10;5.60;;;;;;;31.32;35.18;99671.25;5113772;28;20102;-67
2022/05/31 11:19:37;;;;;;;9.50;4.32;;;;;;;31.08;35.01;99669.38;5092816;28;20204;-67
2022/05/31 11:22:44;;;;;;;8.13;3.90;;;;;;;31.44;34.78;99653.22;5114502;28;20036;-67
2022/05/31 11:25:22;;;;;;;13.27;4.32;;;;;;;31.61;33.81;99649.09;5108194;28;20046;-67
2022/05/31 11:27:56;;;;;;;9.52;4.32;;;;;;;31.64;33.09;99640.25;5109867;28;20032;-67
2022/05/31 11:30:30;;;;;;;9.57;3.67;;;;;;;31.44;34.02;99636.81;5115292;28;20109;-67
2022/05/31 11:33:43;;;;;;;14.95;3.58;;;;;;;31.66;31.19;99635.28;5112770;28;20078;-67
2022/05/31 11:36:31;;;;;;;7.65;3.35;;;;;;;31.54;31.47;99638.53;5054998;28;20052;-67
2022/05/31 11:38:59;;;;;;;8.38;3.15;;;;;;;31.65;30.47;99633.66;5111380;28;20265;-67
2022/05/31 11:41:42;;;;;;;7.10;3.38;;;;;;;31.90;31.78;99640.59;5112002;28;20321;-67
2022/05/31 11:44:19;;;;;;;9.77;4.13;;;;;;;31.83;35.24;99642.94;5110758;28;20326;-67
2022/05/31 11:46:58;;;;;;;13.23;4.10;;;;;;;31.81;34.65;99639.69;5112189;28;20027;-67
2022/05/31 11:49:37;;;;;;;17.88;4.35;;;;;;;31.73;33.79;99638.47;5108197;28;20047;-67
2022/05/31 11:52:09;;;;;;;10.68;4.00;;;;;;;31.73;36.03;99644.75;5107396;28;20047;-66
2022/05/31 11:54:41;;;;;;;11.00;4.00;;;;;;;31.59;35.29;99641.16;5113797;28;20030;-67
2022/05/31 11:57:51;;;;;;;11.77;4.03;;;;;;;31.61;35.84;99644.41;5112374;28;20324;-67
2022/05/31 12:00:17;;;;;;;12.77;4.80;;;;;;;30.80;36.56;99657.53;5109242;28;20051;-67
2022/05/31 12:03:00;;;;;;;9.70;4.15;;;;;;;30.90;34.72;99645.63;5115173;28;20275;-67
2022/05/31 12:05:31;;;;;;;11.45;3.60;;;;;;;30.88;34.47;99647.84;5112460;28;20043;-67
2022/05/31 12:08:24;;;;;;;8.50;3.85;;;;;;;30.88;35.32;99650.59;5114909;28;20218;-67
2022/05/31 12:10:54;;;;;;;8.23;4.03;;;;;;;31.18;33.17;99641.09;5108778;28;20035;-66
2022/05/31 12:13:20;;;;;;;8.50;3.67;;;;;;;31.30;33.71;99655.13;5115260;28;20362;-67